sensor_id;sensor_type;location;lat;lon;timestamp;P1;durP1;ratioP1;P2;durP2;ratioP2
3280;SDS011;1652;51.318;6.202;2023-04-06T00:01:02;19.97;;;13.50;;
3280;SDS011;1652;51.318;6.202;2023-04-06T00:03:29;21.73;;;13.50;;
3280;SDS011;1652;51.318;6.202;2023-04-06T00:05:56;20.00;;;13.73;;
3280;SDS011;1652;51.318;6.202;2023-04-06T00:08:23;16.53;;;12.27;;
3280;SDS011;1652;51.318;6.202;2023-04-06T00:10:51;18.90;;;12.30;;
3280;SDS011;1652;51.318;6.202;2023-04-06T00:13:18;17.33;;;12.97;;
3280;SDS011;1652;51.318;6.202;2023-04-06T00:15:45;19.67;;;13.67;;
3280;SDS011;1652;51.318;6.202;2023-04-06T00:18:12;22.00;;;13.27;;
3280;SDS011;1652;51.318;6.202;2023-04-06T00:20:39;17.80;;;12.57;;
3280;SDS011;1652;51.318;6.202;2023-04-06T00:23:06;24.80;;;13.97;;
3280;SDS011;1652;51.318;6.202;2023-04-06T00:25:33;22.30;;;13.90;;
3280;SDS011;1652;51.318;6.202;2023-04-06T00:28:00;20.00;;;12.43;;
3280;SDS011;1652;51.318;6.202;2023-04-06T00:30:27;18.03;;;12.00;;
3280;SDS011;1652;51.318;6.202;2023-04-06T00:32:54;20.67;;;13.47;;
3280;SDS011;1652;51.318;6.202;2023-04-06T00:35:21;18.90;;;12.87;;
3280;SDS011;1652;51.318;6.202;2023-04-06T00:37:48;17.73;;;12.77;;
3280;SDS011;1652;51.318;6.202;2023-04-06T00:40:15;16.23;;;12.87;;
3280;SDS011;1652;51.318;6.202;2023-04-06T00:42:42;17.30;;;12.53;;
3280;SDS011;1652;51.318;6.202;2023-04-06T00:45:10;17.80;;;13.03;;
3280;SDS011;1652;51.318;6.202;2023-04-06T00:47:37;19.53;;;12.70;;
3280;SDS011;1652;51.318;6.202;2023-04-06T00:50:04;21.10;;;13.87;;
3280;SDS011;1652;51.318;6.202;2023-04-06T00:52:32;20.03;;;13.30;;
3280;SDS011;1652;51.318;6.202;2023-04-06T00:55:00;19.13;;;12.63;;
3280;SDS011;1652;51.318;6.202;2023-04-06T00:57:27;25.80;;;14.80;;
3280;SDS011;1652;51.318;6.202;2023-04-06T00:59:54;19.70;;;13.47;;
3280;SDS011;1652;51.318;6.202;2023-04-06T01:02:21;21.00;;;12.90;;
3280;SDS011;1652;51.318;6.202;2023-04-06T01:04:48;20.90;;;13.37;;
3280;SDS011;1652;51.318;6.202;2023-04-06T01:07:15;24.77;;;13.10;;
3280;SDS011;1652;51.318;6.202;2023-04-06T01:09:42;18.30;;;12.77;;
3280;SDS011;1652;51.318;6.202;2023-04-06T01:12:09;37.13;;;12.63;;
3280;SDS011;1652;51.318;6.202;2023-04-06T01:14:36;18.03;;;12.73;;
3280;SDS011;1652;51.318;6.202;2023-04-06T01:17:03;18.33;;;12.40;;
3280;SDS011;1652;51.318;6.202;2023-04-06T01:19:30;20.17;;;13.90;;
3280;SDS011;1652;51.318;6.202;2023-04-06T01:21:57;18.20;;;11.80;;
3280;SDS011;1652;51.318;6.202;2023-04-06T01:24:24;21.23;;;13.30;;
3280;SDS011;1652;51.318;6.202;2023-04-06T01:26:51;20.20;;;12.77;;
3280;SDS011;1652;51.318;6.202;2023-04-06T01:29:18;20.40;;;12.50;;
3280;SDS011;1652;51.318;6.202;2023-04-06T01:31:45;16.87;;;12.60;;
3280;SDS011;1652;51.318;6.202;2023-04-06T01:34:12;18.17;;;12.53;;
3280;SDS011;1652;51.318;6.202;2023-04-06T01:36:39;21.80;;;13.23;;
3280;SDS011;1652;51.318;6.202;2023-04-06T01:39:06;19.27;;;12.00;;
3280;SDS011;1652;51.318;6.202;2023-04-06T01:41:33;18.83;;;12.47;;
3280;SDS011;1652;51.318;6.202;2023-04-06T01:44:01;17.33;;;12.77;;
3280;SDS011;1652;51.318;6.202;2023-04-06T01:46:28;20.33;;;13.57;;
3280;SDS011;1652;51.318;6.202;2023-04-06T01:48:55;20.70;;;13.60;;
3280;SDS011;1652;51.318;6.202;2023-04-06T01:51:22;19.00;;;13.33;;
3280;SDS011;1652;51.318;6.202;2023-04-06T01:53:51;20.27;;;13.83;;
3280;SDS011;1652;51.318;6.202;2023-04-06T01:56:18;18.20;;;12.80;;
3280;SDS011;1652;51.318;6.202;2023-04-06T01:58:45;18.47;;;13.20;;
3280;SDS011;1652;51.318;6.202;2023-04-06T02:01:12;22.83;;;13.50;;
3280;SDS011;1652;51.318;6.202;2023-04-06T02:03:39;20.67;;;12.70;;
3280;SDS011;1652;51.318;6.202;2023-04-06T02:06:06;19.03;;;13.10;;
3280;SDS011;1652;51.318;6.202;2023-04-06T02:08:33;22.23;;;12.10;;
3280;SDS011;1652;51.318;6.202;2023-04-06T02:11:00;26.30;;;14.53;;
3280;SDS011;1652;51.318;6.202;2023-04-06T02:13:26;27.43;;;13.47;;
3280;SDS011;1652;51.318;6.202;2023-04-06T02:15:53;19.37;;;13.07;;
3280;SDS011;1652;51.318;6.202;2023-04-06T02:18:20;20.87;;;12.63;;
3280;SDS011;1652;51.318;6.202;2023-04-06T02:20:48;27.03;;;13.07;;
3280;SDS011;1652;51.318;6.202;2023-04-06T02:23:15;21.33;;;12.87;;
3280;SDS011;1652;51.318;6.202;2023-04-06T02:25:42;21.40;;;14.40;;
3280;SDS011;1652;51.318;6.202;2023-04-06T02:28:09;21.33;;;13.87;;
3280;SDS011;1652;51.318;6.202;2023-04-06T02:30:36;18.20;;;13.60;;
3280;SDS011;1652;51.318;6.202;2023-04-06T02:33:03;22.80;;;14.50;;
3280;SDS011;1652;51.318;6.202;2023-04-06T02:35:30;22.60;;;13.70;;
3280;SDS011;1652;51.318;6.202;2023-04-06T02:37:58;24.67;;;14.03;;
3280;SDS011;1652;51.318;6.202;2023-04-06T02:40:25;21.57;;;14.83;;
3280;SDS011;1652;51.318;6.202;2023-04-06T02:42:52;20.07;;;13.87;;
3280;SDS011;1652;51.318;6.202;2023-04-06T02:45:18;22.73;;;14.37;;
3280;SDS011;1652;51.318;6.202;2023-04-06T02:47:46;22.00;;;13.33;;
3280;SDS011;1652;51.318;6.202;2023-04-06T02:50:13;16.23;;;12.73;;
3280;SDS011;1652;51.318;6.202;2023-04-06T02:52:41;19.03;;;13.50;;
3280;SDS011;1652;51.318;6.202;2023-04-06T02:55:08;19.90;;;12.80;;
3280;SDS011;1652;51.318;6.202;2023-04-06T02:57:35;22.37;;;13.83;;
3280;SDS011;1652;51.318;6.202;2023-04-06T03:00:02;21.53;;;13.27;;
3280;SDS011;1652;51.318;6.202;2023-04-06T03:02:29;18.60;;;13.27;;
3280;SDS011;1652;51.318;6.202;2023-04-06T03:04:57;21.90;;;13.40;;
3280;SDS011;1652;51.318;6.202;2023-04-06T03:07:23;21.47;;;13.90;;
3280;SDS011;1652;51.318;6.202;2023-04-06T03:09:50;22.17;;;13.50;;
3280;SDS011;1652;51.318;6.202;2023-04-06T03:12:17;14.60;;;12.33;;
3280;SDS011;1652;51.318;6.202;2023-04-06T03:14:44;21.40;;;12.60;;
3280;SDS011;1652;51.318;6.202;2023-04-06T03:17:12;21.57;;;13.27;;
3280;SDS011;1652;51.318;6.202;2023-04-06T03:19:38;22.63;;;12.93;;
3280;SDS011;1652;51.318;6.202;2023-04-06T03:22:05;19.30;;;13.00;;
3280;SDS011;1652;51.318;6.202;2023-04-06T03:24:32;23.70;;;13.80;;
3280;SDS011;1652;51.318;6.202;2023-04-06T03:26:59;20.60;;;12.43;;
3280;SDS011;1652;51.318;6.202;2023-04-06T03:29:26;20.27;;;14.07;;
3280;SDS011;1652;51.318;6.202;2023-04-06T03:31:53;23.60;;;14.57;;
3280;SDS011;1652;51.318;6.202;2023-04-06T03:34:20;19.63;;;13.03;;
3280;SDS011;1652;51.318;6.202;2023-04-06T03:36:47;20.93;;;13.47;;
3280;SDS011;1652;51.318;6.202;2023-04-06T03:39:32;20.47;;;13.10;;
3280;SDS011;1652;51.318;6.202;2023-04-06T03:41:59;18.40;;;12.17;;
3280;SDS011;1652;51.318;6.202;2023-04-06T03:44:26;18.60;;;12.73;;
3280;SDS011;1652;51.318;6.202;2023-04-06T03:46:52;25.90;;;13.37;;
3280;SDS011;1652;51.318;6.202;2023-04-06T03:49:19;18.50;;;12.93;;
3280;SDS011;1652;51.318;6.202;2023-04-06T03:51:46;23.00;;;13.37;;
3280;SDS011;1652;51.318;6.202;2023-04-06T03:54:13;19.00;;;13.23;;
3280;SDS011;1652;51.318;6.202;2023-04-06T03:56:41;26.67;;;13.00;;
3280;SDS011;1652;51.318;6.202;2023-04-06T03:59:07;22.10;;;13.30;;
3280;SDS011;1652;51.318;6.202;2023-04-06T04:01:35;23.70;;;14.07;;
3280;SDS011;1652;51.318;6.202;2023-04-06T04:04:02;20.20;;;12.57;;
3280;SDS011;1652;51.318;6.202;2023-04-06T04:06:29;21.77;;;13.87;;
3280;SDS011;1652;51.318;6.202;2023-04-06T04:08:56;25.70;;;13.80;;
3280;SDS011;1652;51.318;6.202;2023-04-06T04:11:23;23.03;;;14.57;;
3280;SDS011;1652;51.318;6.202;2023-04-06T04:13:50;20.80;;;12.57;;
3280;SDS011;1652;51.318;6.202;2023-04-06T04:16:17;21.30;;;13.67;;
3280;SDS011;1652;51.318;6.202;2023-04-06T04:18:44;19.37;;;14.60;;
3280;SDS011;1652;51.318;6.202;2023-04-06T04:21:13;23.37;;;14.23;;
3280;SDS011;1652;51.318;6.202;2023-04-06T04:23:40;26.80;;;13.63;;
3280;SDS011;1652;51.318;6.202;2023-04-06T04:26:07;20.10;;;13.00;;
3280;SDS011;1652;51.318;6.202;2023-04-06T04:28:34;20.87;;;13.70;;
3280;SDS011;1652;51.318;6.202;2023-04-06T04:31:01;21.93;;;12.23;;
3280;SDS011;1652;51.318;6.202;2023-04-06T04:33:28;22.40;;;12.23;;
3280;SDS011;1652;51.318;6.202;2023-04-06T04:35:55;22.53;;;12.87;;
3280;SDS011;1652;51.318;6.202;2023-04-06T04:38:22;19.07;;;13.33;;
3280;SDS011;1652;51.318;6.202;2023-04-06T04:40:49;16.93;;;12.47;;
3280;SDS011;1652;51.318;6.202;2023-04-06T04:43:16;30.63;;;14.40;;
3280;SDS011;1652;51.318;6.202;2023-04-06T04:45:43;25.43;;;13.57;;
3280;SDS011;1652;51.318;6.202;2023-04-06T04:48:10;26.50;;;12.93;;
3280;SDS011;1652;51.318;6.202;2023-04-06T04:50:37;19.57;;;13.03;;
3280;SDS011;1652;51.318;6.202;2023-04-06T04:53:04;35.60;;;14.27;;
3280;SDS011;1652;51.318;6.202;2023-04-06T04:55:32;21.43;;;12.57;;
3280;SDS011;1652;51.318;6.202;2023-04-06T04:57:59;24.70;;;13.73;;
3280;SDS011;1652;51.318;6.202;2023-04-06T05:00:26;22.83;;;13.50;;
3280;SDS011;1652;51.318;6.202;2023-04-06T05:02:53;18.90;;;13.73;;
3280;SDS011;1652;51.318;6.202;2023-04-06T05:05:20;22.30;;;13.37;;
3280;SDS011;1652;51.318;6.202;2023-04-06T05:07:47;26.50;;;13.83;;
3280;SDS011;1652;51.318;6.202;2023-04-06T05:10:14;33.23;;;13.40;;
3280;SDS011;1652;51.318;6.202;2023-04-06T05:12:41;23.57;;;12.43;;
3280;SDS011;1652;51.318;6.202;2023-04-06T05:15:08;19.23;;;12.93;;
3280;SDS011;1652;51.318;6.202;2023-04-06T05:17:35;22.30;;;12.37;;
3280;SDS011;1652;51.318;6.202;2023-04-06T05:20:03;24.57;;;13.50;;
3280;SDS011;1652;51.318;6.202;2023-04-06T05:22:30;23.40;;;12.60;;
3280;SDS011;1652;51.318;6.202;2023-04-06T05:24:57;24.70;;;12.10;;
3280;SDS011;1652;51.318;6.202;2023-04-06T05:27:24;29.33;;;13.20;;
3280;SDS011;1652;51.318;6.202;2023-04-06T05:29:51;24.73;;;13.40;;
3280;SDS011;1652;51.318;6.202;2023-04-06T05:32:21;24.90;;;13.90;;
3280;SDS011;1652;51.318;6.202;2023-04-06T05:34:49;25.23;;;12.47;;
3280;SDS011;1652;51.318;6.202;2023-04-06T05:37:16;28.60;;;11.70;;
3280;SDS011;1652;51.318;6.202;2023-04-06T05:39:43;25.27;;;13.10;;
3280;SDS011;1652;51.318;6.202;2023-04-06T05:42:10;24.13;;;12.63;;
3280;SDS011;1652;51.318;6.202;2023-04-06T05:44:37;22.63;;;12.10;;
3280;SDS011;1652;51.318;6.202;2023-04-06T05:47:04;30.63;;;13.70;;
3280;SDS011;1652;51.318;6.202;2023-04-06T05:49:31;19.97;;;12.13;;
3280;SDS011;1652;51.318;6.202;2023-04-06T05:51:59;24.17;;;13.97;;
3280;SDS011;1652;51.318;6.202;2023-04-06T05:54:26;23.60;;;13.00;;
3280;SDS011;1652;51.318;6.202;2023-04-06T05:56:53;26.30;;;13.50;;
3280;SDS011;1652;51.318;6.202;2023-04-06T05:59:20;26.90;;;13.50;;
3280;SDS011;1652;51.318;6.202;2023-04-06T06:01:47;30.83;;;11.83;;
3280;SDS011;1652;51.318;6.202;2023-04-06T06:04:14;29.87;;;12.13;;
3280;SDS011;1652;51.318;6.202;2023-04-06T06:06:41;30.87;;;12.90;;
3280;SDS011;1652;51.318;6.202;2023-04-06T06:09:08;30.50;;;12.33;;
3280;SDS011;1652;51.318;6.202;2023-04-06T06:11:35;24.10;;;12.30;;
3280;SDS011;1652;51.318;6.202;2023-04-06T06:14:03;21.90;;;12.40;;
3280;SDS011;1652;51.318;6.202;2023-04-06T06:16:30;33.63;;;15.13;;
3280;SDS011;1652;51.318;6.202;2023-04-06T06:18:57;28.53;;;13.03;;
3280;SDS011;1652;51.318;6.202;2023-04-06T06:21:24;27.77;;;13.27;;
3280;SDS011;1652;51.318;6.202;2023-04-06T06:23:52;18.83;;;12.17;;
3280;SDS011;1652;51.318;6.202;2023-04-06T06:26:20;19.80;;;13.00;;
3280;SDS011;1652;51.318;6.202;2023-04-06T06:28:48;28.73;;;12.70;;
3280;SDS011;1652;51.318;6.202;2023-04-06T06:31:15;25.17;;;12.43;;
3280;SDS011;1652;51.318;6.202;2023-04-06T06:33:42;22.80;;;12.83;;
3280;SDS011;1652;51.318;6.202;2023-04-06T06:36:09;25.67;;;13.17;;
3280;SDS011;1652;51.318;6.202;2023-04-06T06:38:36;25.93;;;13.13;;
3280;SDS011;1652;51.318;6.202;2023-04-06T06:41:04;29.10;;;13.00;;
3280;SDS011;1652;51.318;6.202;2023-04-06T06:43:31;20.70;;;13.37;;
3280;SDS011;1652;51.318;6.202;2023-04-06T06:45:58;19.63;;;11.83;;
3280;SDS011;1652;51.318;6.202;2023-04-06T06:48:25;31.30;;;14.10;;
3280;SDS011;1652;51.318;6.202;2023-04-06T06:50:52;27.77;;;13.53;;
3280;SDS011;1652;51.318;6.202;2023-04-06T06:53:19;22.80;;;12.87;;
3280;SDS011;1652;51.318;6.202;2023-04-06T06:55:46;34.20;;;12.37;;
3280;SDS011;1652;51.318;6.202;2023-04-06T06:58:15;22.60;;;12.00;;
3280;SDS011;1652;51.318;6.202;2023-04-06T07:00:44;25.20;;;13.00;;
3280;SDS011;1652;51.318;6.202;2023-04-06T07:03:11;18.40;;;12.83;;
3280;SDS011;1652;51.318;6.202;2023-04-06T07:05:38;39.13;;;12.30;;
3280;SDS011;1652;51.318;6.202;2023-04-06T07:08:06;22.93;;;13.17;;
3280;SDS011;1652;51.318;6.202;2023-04-06T07:10:33;25.90;;;13.27;;
3280;SDS011;1652;51.318;6.202;2023-04-06T07:13:01;25.33;;;12.30;;
3280;SDS011;1652;51.318;6.202;2023-04-06T07:15:28;23.50;;;12.63;;
3280;SDS011;1652;51.318;6.202;2023-04-06T07:17:56;26.00;;;13.43;;
3280;SDS011;1652;51.318;6.202;2023-04-06T07:22:50;25.67;;;12.00;;
3280;SDS011;1652;51.318;6.202;2023-04-06T07:25:17;33.03;;;14.37;;
3280;SDS011;1652;51.318;6.202;2023-04-06T07:27:44;31.00;;;12.33;;
3280;SDS011;1652;51.318;6.202;2023-04-06T07:30:11;23.90;;;13.17;;
3280;SDS011;1652;51.318;6.202;2023-04-06T07:32:38;20.10;;;12.60;;
3280;SDS011;1652;51.318;6.202;2023-04-06T07:35:06;22.30;;;13.10;;
3280;SDS011;1652;51.318;6.202;2023-04-06T07:37:33;31.13;;;13.33;;
3280;SDS011;1652;51.318;6.202;2023-04-06T07:40:00;19.07;;;12.10;;
3280;SDS011;1652;51.318;6.202;2023-04-06T07:42:26;31.07;;;12.63;;
3280;SDS011;1652;51.318;6.202;2023-04-06T07:44:53;26.10;;;13.03;;
3280;SDS011;1652;51.318;6.202;2023-04-06T07:47:20;28.97;;;13.60;;
3280;SDS011;1652;51.318;6.202;2023-04-06T07:49:49;39.60;;;13.33;;
3280;SDS011;1652;51.318;6.202;2023-04-06T07:52:16;29.90;;;11.70;;
3280;SDS011;1652;51.318;6.202;2023-04-06T07:54:43;23.53;;;13.07;;
3280;SDS011;1652;51.318;6.202;2023-04-06T07:57:10;21.23;;;12.10;;
3280;SDS011;1652;51.318;6.202;2023-04-06T07:59:37;21.50;;;13.77;;
3280;SDS011;1652;51.318;6.202;2023-04-06T08:02:04;17.47;;;12.23;;
3280;SDS011;1652;51.318;6.202;2023-04-06T08:04:32;20.00;;;12.70;;
3280;SDS011;1652;51.318;6.202;2023-04-06T08:06:59;31.90;;;11.50;;
3280;SDS011;1652;51.318;6.202;2023-04-06T08:09:26;24.73;;;12.87;;
3280;SDS011;1652;51.318;6.202;2023-04-06T08:11:53;25.53;;;11.63;;
3280;SDS011;1652;51.318;6.202;2023-04-06T08:14:20;16.47;;;12.27;;
3280;SDS011;1652;51.318;6.202;2023-04-06T08:16:47;17.37;;;11.13;;
3280;SDS011;1652;51.318;6.202;2023-04-06T08:19:14;18.10;;;12.20;;
3280;SDS011;1652;51.318;6.202;2023-04-06T08:21:43;20.10;;;11.40;;
3280;SDS011;1652;51.318;6.202;2023-04-06T08:24:11;19.80;;;11.57;;
3280;SDS011;1652;51.318;6.202;2023-04-06T08:26:39;32.63;;;11.90;;
3280;SDS011;1652;51.318;6.202;2023-04-06T08:29:06;17.60;;;11.33;;
3280;SDS011;1652;51.318;6.202;2023-04-06T08:31:36;19.57;;;11.43;;
3280;SDS011;1652;51.318;6.202;2023-04-06T08:34:03;25.63;;;12.60;;
3280;SDS011;1652;51.318;6.202;2023-04-06T08:36:32;25.70;;;12.57;;
3280;SDS011;1652;51.318;6.202;2023-04-06T08:39:00;24.03;;;11.77;;
3280;SDS011;1652;51.318;6.202;2023-04-06T08:41:27;24.90;;;12.00;;
3280;SDS011;1652;51.318;6.202;2023-04-06T08:43:58;25.67;;;11.53;;
3280;SDS011;1652;51.318;6.202;2023-04-06T08:46:26;21.63;;;11.33;;
3280;SDS011;1652;51.318;6.202;2023-04-06T08:48:58;25.73;;;13.00;;
3280;SDS011;1652;51.318;6.202;2023-04-06T08:51:27;20.47;;;11.73;;
3280;SDS011;1652;51.318;6.202;2023-04-06T08:53:55;16.87;;;11.23;;
3280;SDS011;1652;51.318;6.202;2023-04-06T08:56:24;19.63;;;12.13;;
3280;SDS011;1652;51.318;6.202;2023-04-06T08:58:53;23.47;;;12.40;;
3280;SDS011;1652;51.318;6.202;2023-04-06T09:01:22;19.77;;;11.37;;
3280;SDS011;1652;51.318;6.202;2023-04-06T09:03:54;19.80;;;12.53;;
3280;SDS011;1652;51.318;6.202;2023-04-06T09:06:24;16.90;;;10.93;;
3280;SDS011;1652;51.318;6.202;2023-04-06T09:08:53;19.23;;;11.37;;
3280;SDS011;1652;51.318;6.202;2023-04-06T09:11:21;17.50;;;10.53;;
3280;SDS011;1652;51.318;6.202;2023-04-06T09:13:52;23.80;;;11.43;;
3280;SDS011;1652;51.318;6.202;2023-04-06T09:16:20;21.97;;;12.20;;
3280;SDS011;1652;51.318;6.202;2023-04-06T09:18:48;19.13;;;11.20;;
3280;SDS011;1652;51.318;6.202;2023-04-06T09:21:16;35.33;;;11.10;;
3280;SDS011;1652;51.318;6.202;2023-04-06T09:23:47;24.30;;;11.80;;
3280;SDS011;1652;51.318;6.202;2023-04-06T09:26:24;21.80;;;11.50;;
3280;SDS011;1652;51.318;6.202;2023-04-06T09:28:53;23.07;;;12.27;;
3280;SDS011;1652;51.318;6.202;2023-04-06T09:31:25;27.40;;;13.20;;
3280;SDS011;1652;51.318;6.202;2023-04-06T09:33:53;24.80;;;12.30;;
3280;SDS011;1652;51.318;6.202;2023-04-06T09:36:30;21.27;;;11.07;;
3280;SDS011;1652;51.318;6.202;2023-04-06T09:38:59;22.33;;;11.87;;
3280;SDS011;1652;51.318;6.202;2023-04-06T09:41:36;19.73;;;11.97;;
3280;SDS011;1652;51.318;6.202;2023-04-06T09:46:38;23.93;;;12.00;;
3280;SDS011;1652;51.318;6.202;2023-04-06T09:49:24;20.03;;;11.53;;
3280;SDS011;1652;51.318;6.202;2023-04-06T09:51:55;20.30;;;13.00;;
3280;SDS011;1652;51.318;6.202;2023-04-06T09:54:26;21.83;;;10.80;;
3280;SDS011;1652;51.318;6.202;2023-04-06T09:59:50;16.20;;;10.10;;
3280;SDS011;1652;51.318;6.202;2023-04-06T10:05:22;20.30;;;11.00;;
3280;SDS011;1652;51.318;6.202;2023-04-06T10:07:54;17.80;;;12.27;;
3280;SDS011;1652;51.318;6.202;2023-04-06T10:10:27;18.60;;;12.73;;
3280;SDS011;1652;51.318;6.202;2023-04-06T10:12:55;19.27;;;12.60;;
3280;SDS011;1652;51.318;6.202;2023-04-06T10:15:23;17.73;;;12.00;;
3280;SDS011;1652;51.318;6.202;2023-04-06T10:17:50;34.90;;;14.90;;
3280;SDS011;1652;51.318;6.202;2023-04-06T10:22:55;22.20;;;14.03;;
3280;SDS011;1652;51.318;6.202;2023-04-06T10:25:29;21.77;;;12.83;;
3280;SDS011;1652;51.318;6.202;2023-04-06T10:28:04;23.10;;;13.20;;
3280;SDS011;1652;51.318;6.202;2023-04-06T10:30:33;18.67;;;12.73;;
3280;SDS011;1652;51.318;6.202;2023-04-06T10:33:11;15.43;;;11.30;;
3280;SDS011;1652;51.318;6.202;2023-04-06T10:35:42;17.67;;;11.20;;
3280;SDS011;1652;51.318;6.202;2023-04-06T10:38:10;14.90;;;10.93;;
3280;SDS011;1652;51.318;6.202;2023-04-06T10:40:39;25.50;;;11.13;;
3280;SDS011;1652;51.318;6.202;2023-04-06T10:43:11;16.97;;;10.17;;
3280;SDS011;1652;51.318;6.202;2023-04-06T10:45:40;11.60;;;9.00;;
3280;SDS011;1652;51.318;6.202;2023-04-06T10:48:13;21.03;;;10.90;;
3280;SDS011;1652;51.318;6.202;2023-04-06T10:50:46;16.10;;;10.70;;
3280;SDS011;1652;51.318;6.202;2023-04-06T10:53:24;12.67;;;8.97;;
3280;SDS011;1652;51.318;6.202;2023-04-06T10:55:54;13.13;;;9.80;;
3280;SDS011;1652;51.318;6.202;2023-04-06T10:58:26;11.57;;;9.20;;
3280;SDS011;1652;51.318;6.202;2023-04-06T11:00:53;9.30;;;8.30;;
3280;SDS011;1652;51.318;6.202;2023-04-06T11:03:26;18.87;;;9.07;;
3280;SDS011;1652;51.318;6.202;2023-04-06T11:05:53;9.33;;;8.27;;
3280;SDS011;1652;51.318;6.202;2023-04-06T11:08:33;16.90;;;9.20;;
3280;SDS011;1652;51.318;6.202;2023-04-06T11:11:08;9.60;;;8.60;;
3280;SDS011;1652;51.318;6.202;2023-04-06T11:13:58;11.93;;;8.90;;
3280;SDS011;1652;51.318;6.202;2023-04-06T11:16:26;14.83;;;9.47;;
3280;SDS011;1652;51.318;6.202;2023-04-06T11:18:56;12.53;;;8.20;;
3280;SDS011;1652;51.318;6.202;2023-04-06T11:27:40;9.83;;;8.83;;
3280;SDS011;1652;51.318;6.202;2023-04-06T11:30:07;13.23;;;8.67;;
3280;SDS011;1652;51.318;6.202;2023-04-06T11:32:42;13.13;;;9.17;;
3280;SDS011;1652;51.318;6.202;2023-04-06T11:35:11;11.10;;;8.27;;
3280;SDS011;1652;51.318;6.202;2023-04-06T11:37:45;9.10;;;7.30;;
3280;SDS011;1652;51.318;6.202;2023-04-06T11:40:13;8.50;;;7.07;;
3280;SDS011;1652;51.318;6.202;2023-04-06T11:42:40;8.63;;;7.80;;
3280;SDS011;1652;51.318;6.202;2023-04-06T11:45:07;13.00;;;7.27;;
3280;SDS011;1652;51.318;6.202;2023-04-06T11:47:36;10.33;;;8.00;;
3280;SDS011;1652;51.318;6.202;2023-04-06T11:50:07;11.93;;;7.93;;
3280;SDS011;1652;51.318;6.202;2023-04-06T11:52:42;10.73;;;7.27;;
3280;SDS011;1652;51.318;6.202;2023-04-06T11:55:13;9.00;;;7.37;;
3280;SDS011;1652;51.318;6.202;2023-04-06T11:57:41;9.90;;;7.67;;
3280;SDS011;1652;51.318;6.202;2023-04-06T12:00:09;9.93;;;7.73;;
3280;SDS011;1652;51.318;6.202;2023-04-06T12:02:38;8.53;;;7.17;;
3280;SDS011;1652;51.318;6.202;2023-04-06T12:05:05;9.47;;;8.27;;
3280;SDS011;1652;51.318;6.202;2023-04-06T12:07:34;11.30;;;8.63;;
3280;SDS011;1652;51.318;6.202;2023-04-06T12:10:02;7.97;;;7.07;;
3280;SDS011;1652;51.318;6.202;2023-04-06T12:12:30;7.20;;;6.50;;
3280;SDS011;1652;51.318;6.202;2023-04-06T12:14:57;7.73;;;6.30;;
3280;SDS011;1652;51.318;6.202;2023-04-06T12:17:25;6.40;;;5.80;;
3280;SDS011;1652;51.318;6.202;2023-04-06T12:19:52;9.70;;;7.47;;
3280;SDS011;1652;51.318;6.202;2023-04-06T12:22:19;7.63;;;6.73;;
3280;SDS011;1652;51.318;6.202;2023-04-06T12:24:46;10.50;;;7.43;;
3280;SDS011;1652;51.318;6.202;2023-04-06T12:27:13;7.73;;;7.03;;
3280;SDS011;1652;51.318;6.202;2023-04-06T12:29:40;9.87;;;7.30;;
3280;SDS011;1652;51.318;6.202;2023-04-06T12:32:08;7.60;;;6.30;;
3280;SDS011;1652;51.318;6.202;2023-04-06T12:34:35;10.17;;;7.10;;
3280;SDS011;1652;51.318;6.202;2023-04-06T12:37:02;6.30;;;5.27;;
3280;SDS011;1652;51.318;6.202;2023-04-06T12:39:29;6.07;;;5.63;;
3280;SDS011;1652;51.318;6.202;2023-04-06T12:41:56;7.57;;;6.87;;
3280;SDS011;1652;51.318;6.202;2023-04-06T12:44:23;9.87;;;7.50;;
3280;SDS011;1652;51.318;6.202;2023-04-06T12:46:52;7.80;;;6.97;;
3280;SDS011;1652;51.318;6.202;2023-04-06T12:49:19;8.00;;;7.20;;
3280;SDS011;1652;51.318;6.202;2023-04-06T12:51:46;10.93;;;7.57;;
3280;SDS011;1652;51.318;6.202;2023-04-06T12:54:13;10.60;;;8.80;;
3280;SDS011;1652;51.318;6.202;2023-04-06T12:56:40;11.03;;;8.23;;
3280;SDS011;1652;51.318;6.202;2023-04-06T12:59:07;12.40;;;9.60;;
3280;SDS011;1652;51.318;6.202;2023-04-06T13:01:34;13.20;;;8.90;;
3280;SDS011;1652;51.318;6.202;2023-04-06T13:04:01;15.17;;;8.13;;
3280;SDS011;1652;51.318;6.202;2023-04-06T13:06:28;10.93;;;8.23;;
3280;SDS011;1652;51.318;6.202;2023-04-06T13:08:56;11.07;;;8.37;;
3280;SDS011;1652;51.318;6.202;2023-04-06T13:11:23;10.77;;;9.07;;
3280;SDS011;1652;51.318;6.202;2023-04-06T13:13:54;10.40;;;8.13;;
3280;SDS011;1652;51.318;6.202;2023-04-06T13:16:21;11.40;;;8.63;;
3280;SDS011;1652;51.318;6.202;2023-04-06T13:18:48;16.33;;;8.77;;
3280;SDS011;1652;51.318;6.202;2023-04-06T13:21:16;10.20;;;9.00;;
3280;SDS011;1652;51.318;6.202;2023-04-06T13:23:43;14.97;;;10.07;;
3280;SDS011;1652;51.318;6.202;2023-04-06T13:26:10;10.80;;;8.30;;
3280;SDS011;1652;51.318;6.202;2023-04-06T13:28:39;11.10;;;9.07;;
3280;SDS011;1652;51.318;6.202;2023-04-06T13:31:07;10.23;;;9.20;;
3280;SDS011;1652;51.318;6.202;2023-04-06T13:33:34;13.93;;;9.20;;
3280;SDS011;1652;51.318;6.202;2023-04-06T13:36:01;12.60;;;9.83;;
3280;SDS011;1652;51.318;6.202;2023-04-06T13:38:29;14.97;;;9.33;;
3280;SDS011;1652;51.318;6.202;2023-04-06T13:40:56;11.60;;;9.87;;
3280;SDS011;1652;51.318;6.202;2023-04-06T13:43:23;12.67;;;9.07;;
3280;SDS011;1652;51.318;6.202;2023-04-06T13:45:53;15.47;;;10.90;;
3280;SDS011;1652;51.318;6.202;2023-04-06T13:48:24;16.80;;;11.83;;
3280;SDS011;1652;51.318;6.202;2023-04-06T13:50:52;19.83;;;11.20;;
3280;SDS011;1652;51.318;6.202;2023-04-06T13:53:19;17.67;;;12.00;;
3280;SDS011;1652;51.318;6.202;2023-04-06T13:55:53;15.27;;;10.50;;
3280;SDS011;1652;51.318;6.202;2023-04-06T13:58:20;17.87;;;11.17;;
3280;SDS011;1652;51.318;6.202;2023-04-06T14:00:47;13.20;;;10.70;;
3280;SDS011;1652;51.318;6.202;2023-04-06T14:03:14;15.73;;;11.43;;
3280;SDS011;1652;51.318;6.202;2023-04-06T14:05:41;15.67;;;11.60;;
3280;SDS011;1652;51.318;6.202;2023-04-06T14:08:08;14.27;;;11.00;;
3280;SDS011;1652;51.318;6.202;2023-04-06T14:10:39;20.60;;;12.10;;
3280;SDS011;1652;51.318;6.202;2023-04-06T14:13:07;16.50;;;12.17;;
3280;SDS011;1652;51.318;6.202;2023-04-06T14:15:34;17.70;;;11.77;;
3280;SDS011;1652;51.318;6.202;2023-04-06T14:18:01;19.70;;;12.20;;
3280;SDS011;1652;51.318;6.202;2023-04-06T14:20:30;19.60;;;12.60;;
3280;SDS011;1652;51.318;6.202;2023-04-06T14:23:02;15.90;;;11.23;;
3280;SDS011;1652;51.318;6.202;2023-04-06T14:25:29;13.50;;;11.13;;
3280;SDS011;1652;51.318;6.202;2023-04-06T14:28:01;18.40;;;12.37;;
3280;SDS011;1652;51.318;6.202;2023-04-06T14:30:29;18.73;;;12.63;;
3280;SDS011;1652;51.318;6.202;2023-04-06T14:32:57;18.40;;;12.23;;
3280;SDS011;1652;51.318;6.202;2023-04-06T14:35:24;19.47;;;11.67;;
3280;SDS011;1652;51.318;6.202;2023-04-06T14:37:54;19.17;;;13.03;;
3280;SDS011;1652;51.318;6.202;2023-04-06T14:40:23;24.00;;;12.80;;
3280;SDS011;1652;51.318;6.202;2023-04-06T14:42:51;20.10;;;13.03;;
3280;SDS011;1652;51.318;6.202;2023-04-06T14:45:18;20.97;;;13.97;;
3280;SDS011;1652;51.318;6.202;2023-04-06T14:47:46;20.97;;;13.17;;
3280;SDS011;1652;51.318;6.202;2023-04-06T14:50:13;19.40;;;12.07;;
3280;SDS011;1652;51.318;6.202;2023-04-06T14:52:40;22.07;;;11.83;;
3280;SDS011;1652;51.318;6.202;2023-04-06T14:55:07;18.90;;;13.47;;
3280;SDS011;1652;51.318;6.202;2023-04-06T14:57:34;20.77;;;14.37;;
3280;SDS011;1652;51.318;6.202;2023-04-06T15:00:01;20.27;;;14.30;;
3280;SDS011;1652;51.318;6.202;2023-04-06T15:02:29;19.00;;;13.40;;
3280;SDS011;1652;51.318;6.202;2023-04-06T15:04:58;20.53;;;12.80;;
3280;SDS011;1652;51.318;6.202;2023-04-06T15:07:25;18.77;;;12.47;;
3280;SDS011;1652;51.318;6.202;2023-04-06T15:09:52;22.13;;;12.30;;
3280;SDS011;1652;51.318;6.202;2023-04-06T15:12:19;19.83;;;13.90;;
3280;SDS011;1652;51.318;6.202;2023-04-06T15:14:46;22.77;;;13.17;;